createdAt,value
2022-08-20T00:07:16.097Z,0.80
2022-08-20T00:17:17.386Z,2.40
2022-08-20T00:27:18.603Z,2.10
2022-08-20T00:37:19.840Z,1.83
2022-08-20T00:47:21.128Z,2.65
2022-08-20T00:57:24.697Z,1.30
2022-08-20T01:07:32.478Z,1.40
2022-08-20T01:17:34.844Z,3.22
2022-08-20T01:27:42.746Z,3.63
2022-08-20T01:37:44.253Z,5.75
2022-08-20T01:47:45.519Z,4.60
2022-08-20T01:57:51.011Z,5.50
2022-08-20T02:07:52.314Z,5.00
2022-08-20T02:17:53.596Z,6.03
2022-08-20T02:27:55.197Z,4.20
2022-08-20T02:37:57.013Z,3.70
2022-08-20T02:47:59.257Z,3.10
2022-08-20T02:58:00.847Z,3.47
2022-08-20T03:08:02.225Z,3.83
2022-08-20T03:18:03.481Z,5.53
2022-08-20T03:28:04.746Z,5.65
2022-08-20T03:38:06.627Z,5.07
2022-08-20T03:48:08.213Z,5.28
2022-08-20T03:58:09.634Z,5.80
2022-08-20T04:08:12.171Z,5.63
2022-08-20T04:18:13.441Z,5.97
2022-08-20T04:28:15.783Z,6.38
2022-08-20T04:38:17.417Z,5.80
2022-08-20T04:48:20.161Z,5.55
2022-08-20T04:58:22.464Z,4.47
2022-08-20T05:08:25.044Z,4.03
2022-08-20T05:18:26.344Z,3.83
2022-08-20T05:28:32.398Z,4.03
2022-08-20T05:38:34.860Z,2.83
2022-08-20T05:48:36.484Z,1.40
2022-08-20T05:58:37.745Z,4.10
2022-08-20T06:08:39.127Z,8.35
2022-08-20T06:18:40.352Z,3.78
2022-08-20T06:28:43.936Z,9.75
2022-08-20T06:38:46.217Z,2.78
2022-08-20T06:48:47.606Z,12.07
2022-08-20T06:58:49.464Z,14.77
2022-08-20T07:08:50.684Z,12.30
2022-08-20T07:18:51.887Z,10.73
2022-08-20T07:28:53.266Z,12.18
2022-08-20T07:38:54.571Z,11.32
2022-08-20T07:48:58.189Z,11.43
2022-08-20T07:58:59.855Z,11.68
2022-08-20T08:09:05.137Z,13.77
2022-08-20T08:19:06.885Z,13.52
2022-08-20T08:29:08.114Z,12.95
2022-08-20T08:39:09.519Z,14.27
2022-08-20T08:49:11.989Z,12.90
2022-08-20T08:59:13.406Z,16.23
2022-08-20T09:09:18.276Z,14.20
2022-08-20T09:19:19.545Z,14.73
2022-08-20T09:29:20.839Z,4.65
2022-08-20T09:39:22.310Z,10.05
2022-08-20T09:49:23.598Z,13.50
2022-08-20T09:59:24.803Z,9.05
2022-08-20T10:09:26.042Z,10.00
2022-08-20T10:19:27.429Z,11.02
2022-08-20T10:29:28.836Z,10.63
2022-08-20T10:39:31.515Z,10.65
2022-08-20T10:49:35.653Z,11.18
2022-08-20T10:59:40.474Z,9.82
2022-08-20T11:09:41.921Z,9.00
2022-08-20T11:19:43.525Z,8.13
2022-08-20T11:29:44.826Z,3.20
2022-08-20T11:39:46.214Z,3.13
2022-08-20T11:49:47.447Z,5.50
2022-08-20T11:59:49.868Z,6.53
2022-08-20T12:09:51.473Z,5.85
2022-08-20T12:19:53.155Z,6.65
2022-08-20T12:29:55.060Z,4.85
2022-08-20T12:39:57.279Z,4.65
2022-08-20T12:50:00.900Z,3.58
2022-08-20T13:00:08.507Z,4.85
2022-08-20T13:10:10.534Z,3.38
2022-08-20T13:20:13.221Z,3.05
2022-08-20T13:30:19.055Z,4.03
2022-08-20T13:40:20.341Z,3.85
2022-08-20T13:50:22.163Z,3.72
2022-08-20T14:00:31.193Z,3.35
2022-08-20T14:10:33.056Z,2.92
2022-08-20T14:20:34.453Z,3.53
2022-08-20T14:30:35.671Z,3.05
2022-08-20T14:40:36.962Z,2.65
2022-08-20T14:50:38.212Z,2.30
2022-08-20T15:00:39.770Z,2.67
2022-08-20T15:10:41.766Z,2.53
2022-08-20T15:20:42.983Z,3.00
2022-08-20T15:30:44.253Z,2.88
2022-08-20T15:40:46.066Z,2.15
2022-08-20T15:50:47.300Z,2.10
2022-08-20T16:01:15.355Z,1.50
2022-08-20T16:11:33.549Z,2.13
2022-08-20T16:21:37.311Z,2.35
2022-08-20T16:31:43.448Z,1.58
2022-08-20T16:51:51.735Z,1.45
2022-08-20T17:02:16.330Z,1.30
2022-08-20T17:12:22.182Z,2.13
2022-08-20T17:22:23.556Z,2.75
2022-08-20T17:32:26.705Z,1.48
2022-08-20T17:42:27.990Z,2.40
2022-08-20T17:52:38.371Z,3.13
2022-08-20T18:02:39.614Z,2.60
2022-08-20T18:12:41.679Z,2.65
2022-08-20T18:22:44.518Z,2.55
2022-08-20T18:32:45.883Z,2.50
2022-08-20T18:42:49.537Z,2.70
2022-08-20T18:52:51.862Z,3.08
2022-08-20T19:03:09.162Z,4.13
2022-08-20T19:13:16.245Z,3.73
2022-08-20T19:23:21.109Z,4.23
2022-08-20T19:33:44.087Z,4.60
2022-08-20T19:43:45.942Z,4.32
2022-08-20T19:53:47.628Z,4.40
2022-08-20T20:03:59.235Z,2.65
2022-08-20T20:14:07.910Z,3.83
2022-08-20T20:24:09.373Z,4.50
2022-08-20T20:34:11.591Z,3.72
2022-08-20T20:44:17.438Z,4.03
2022-08-20T20:54:25.003Z,3.50
2022-08-20T21:04:26.380Z,3.30
2022-08-20T21:14:27.775Z,3.90
2022-08-20T21:24:29.118Z,4.18
2022-08-20T21:34:30.356Z,4.28
2022-08-20T21:44:32.150Z,4.10
2022-08-20T21:54:33.366Z,4.30
2022-08-20T22:04:35.674Z,4.45
2022-08-20T22:14:37.323Z,4.63
2022-08-20T22:24:39.520Z,4.90
2022-08-20T22:34:40.918Z,4.55
2022-08-20T22:44:42.159Z,4.30
2022-08-20T22:54:45.332Z,4.18
2022-08-20T23:04:46.664Z,5.35
2022-08-20T23:14:48.154Z,5.32
2022-08-20T23:24:49.380Z,4.78
2022-08-20T23:34:50.632Z,4.90
2022-08-20T23:44:51.993Z,5.30
2022-08-20T23:54:53.295Z,4.90
